sensor_id;sensor_type;location;lat;lon;timestamp;temperature;humidity
60860;DHT22;46694;54.382;9.708;2023-07-22T00:02:24;15.00;99.90
60860;DHT22;46694;54.382;9.708;2023-07-22T00:05:03;14.90;99.90
60860;DHT22;46694;54.382;9.708;2023-07-22T00:07:43;15.00;99.90
60860;DHT22;46694;54.382;9.708;2023-07-22T00:10:23;14.90;99.90
60860;DHT22;46694;54.382;9.708;2023-07-22T00:13:02;14.90;99.90
60860;DHT22;46694;54.382;9.708;2023-07-22T00:15:42;14.80;99.90
60860;DHT22;46694;54.382;9.708;2023-07-22T00:18:22;14.80;99.90
60860;DHT22;46694;54.382;9.708;2023-07-22T00:21:02;14.70;99.90
60860;DHT22;46694;54.382;9.708;2023-07-22T00:23:42;14.70;99.90
60860;DHT22;46694;54.382;9.708;2023-07-22T00:26:21;14.60;99.90
60860;DHT22;46694;54.382;9.708;2023-07-22T00:29:01;14.60;99.90
60860;DHT22;46694;54.382;9.708;2023-07-22T00:31:41;14.60;99.90
60860;DHT22;46694;54.382;9.708;2023-07-22T00:34:21;14.50;99.90
60860;DHT22;46694;54.382;9.708;2023-07-22T00:37:02;14.50;99.90
60860;DHT22;46694;54.382;9.708;2023-07-22T00:39:41;14.50;99.90
60860;DHT22;46694;54.382;9.708;2023-07-22T00:42:21;14.60;99.90
60860;DHT22;46694;54.382;9.708;2023-07-22T00:45:01;14.50;99.90
60860;DHT22;46694;54.382;9.708;2023-07-22T00:47:40;14.50;99.90
60860;DHT22;46694;54.382;9.708;2023-07-22T00:50:22;14.50;99.90
60860;DHT22;46694;54.382;9.708;2023-07-22T00:53:02;14.50;99.90
60860;DHT22;46694;54.382;9.708;2023-07-22T00:55:41;14.50;99.90
60860;DHT22;46694;54.382;9.708;2023-07-22T00:58:22;14.50;99.90
60860;DHT22;46694;54.382;9.708;2023-07-22T01:01:03;14.50;99.90
60860;DHT22;46694;54.382;9.708;2023-07-22T01:03:42;14.50;99.90
60860;DHT22;46694;54.382;9.708;2023-07-22T01:06:23;14.50;99.90
60860;DHT22;46694;54.382;9.708;2023-07-22T01:09:11;14.50;99.90
60860;DHT22;46694;54.382;9.708;2023-07-22T01:11:50;14.50;99.90
60860;DHT22;46694;54.382;9.708;2023-07-22T01:14:30;14.50;99.90
60860;DHT22;46694;54.382;9.708;2023-07-22T01:17:10;14.50;99.90
60860;DHT22;46694;54.382;9.708;2023-07-22T01:19:50;14.50;99.90
60860;DHT22;46694;54.382;9.708;2023-07-22T01:22:32;14.50;99.90
60860;DHT22;46694;54.382;9.708;2023-07-22T01:25:15;14.50;99.90
60860;DHT22;46694;54.382;9.708;2023-07-22T01:27:55;14.50;99.90
60860;DHT22;46694;54.382;9.708;2023-07-22T01:30:34;14.50;99.90
60860;DHT22;46694;54.382;9.708;2023-07-22T01:33:14;14.50;99.90
60860;DHT22;46694;54.382;9.708;2023-07-22T01:35:53;14.50;99.90
60860;DHT22;46694;54.382;9.708;2023-07-22T01:38:33;14.50;99.90
60860;DHT22;46694;54.382;9.708;2023-07-22T01:41:14;14.50;99.90
60860;DHT22;46694;54.382;9.708;2023-07-22T01:43:54;14.50;99.90
60860;DHT22;46694;54.382;9.708;2023-07-22T01:46:34;14.50;99.90
60860;DHT22;46694;54.382;9.708;2023-07-22T01:49:15;14.50;99.90
60860;DHT22;46694;54.382;9.708;2023-07-22T01:51:55;14.50;99.90
60860;DHT22;46694;54.382;9.708;2023-07-22T01:54:35;14.50;99.90
60860;DHT22;46694;54.382;9.708;2023-07-22T01:57:14;14.50;99.90
60860;DHT22;46694;54.382;9.708;2023-07-22T01:59:54;14.50;99.90
60860;DHT22;46694;54.382;9.708;2023-07-22T02:02:34;14.50;99.90
60860;DHT22;46694;54.382;9.708;2023-07-22T02:05:14;14.40;99.90
60860;DHT22;46694;54.382;9.708;2023-07-22T02:07:53;14.50;99.90
60860;DHT22;46694;54.382;9.708;2023-07-22T02:10:34;14.50;99.90
60860;DHT22;46694;54.382;9.708;2023-07-22T02:13:13;14.50;99.90
60860;DHT22;46694;54.382;9.708;2023-07-22T02:15:53;14.50;99.90
60860;DHT22;46694;54.382;9.708;2023-07-22T02:18:33;14.50;99.90
60860;DHT22;46694;54.382;9.708;2023-07-22T02:21:13;14.50;99.90
60860;DHT22;46694;54.382;9.708;2023-07-22T02:23:52;14.50;99.90
60860;DHT22;46694;54.382;9.708;2023-07-22T02:26:32;14.50;99.90
60860;DHT22;46694;54.382;9.708;2023-07-22T02:29:11;14.50;99.90
60860;DHT22;46694;54.382;9.708;2023-07-22T02:31:51;14.50;99.90
60860;DHT22;46694;54.382;9.708;2023-07-22T02:34:30;14.50;99.90
60860;DHT22;46694;54.382;9.708;2023-07-22T02:37:10;14.50;99.90
60860;DHT22;46694;54.382;9.708;2023-07-22T02:39:49;14.50;99.90
60860;DHT22;46694;54.382;9.708;2023-07-22T02:42:29;14.50;99.90
60860;DHT22;46694;54.382;9.708;2023-07-22T02:45:09;14.50;99.90
60860;DHT22;46694;54.382;9.708;2023-07-22T02:47:49;14.60;99.90
60860;DHT22;46694;54.382;9.708;2023-07-22T02:50:29;14.60;99.90
60860;DHT22;46694;54.382;9.708;2023-07-22T02:53:09;14.50;99.90
60860;DHT22;46694;54.382;9.708;2023-07-22T02:55:48;14.40;99.90
60860;DHT22;46694;54.382;9.708;2023-07-22T02:58:28;14.40;99.90
60860;DHT22;46694;54.382;9.708;2023-07-22T03:01:07;14.30;99.90
60860;DHT22;46694;54.382;9.708;2023-07-22T03:03:48;14.30;99.90
60860;DHT22;46694;54.382;9.708;2023-07-22T03:06:27;14.30;99.90
60860;DHT22;46694;54.382;9.708;2023-07-22T03:09:07;14.30;99.90
60860;DHT22;46694;54.382;9.708;2023-07-22T03:11:50;14.30;99.90
60860;DHT22;46694;54.382;9.708;2023-07-22T03:14:30;14.20;99.90
60860;DHT22;46694;54.382;9.708;2023-07-22T03:17:15;14.10;99.90
60860;DHT22;46694;54.382;9.708;2023-07-22T03:19:57;14.00;99.90
60860;DHT22;46694;54.382;9.708;2023-07-22T03:22:36;14.00;99.90
60860;DHT22;46694;54.382;9.708;2023-07-22T03:25:16;14.00;99.90
60860;DHT22;46694;54.382;9.708;2023-07-22T03:27:56;14.00;99.90
60860;DHT22;46694;54.382;9.708;2023-07-22T03:30:36;14.00;99.90
60860;DHT22;46694;54.382;9.708;2023-07-22T03:33:15;14.00;99.90
60860;DHT22;46694;54.382;9.708;2023-07-22T03:35:55;14.00;99.90
60860;DHT22;46694;54.382;9.708;2023-07-22T03:38:34;14.00;99.90
60860;DHT22;46694;54.382;9.708;2023-07-22T03:41:14;14.00;99.90
60860;DHT22;46694;54.382;9.708;2023-07-22T03:43:54;14.00;99.90
60860;DHT22;46694;54.382;9.708;2023-07-22T03:46:33;14.10;99.90
60860;DHT22;46694;54.382;9.708;2023-07-22T03:49:13;14.10;99.90
60860;DHT22;46694;54.382;9.708;2023-07-22T03:51:52;14.10;99.90
60860;DHT22;46694;54.382;9.708;2023-07-22T03:54:32;14.20;99.90
60860;DHT22;46694;54.382;9.708;2023-07-22T03:57:11;14.20;99.90
60860;DHT22;46694;54.382;9.708;2023-07-22T03:59:51;14.20;99.90
60860;DHT22;46694;54.382;9.708;2023-07-22T04:02:30;14.20;99.90
60860;DHT22;46694;54.382;9.708;2023-07-22T04:05:10;14.20;99.90
60860;DHT22;46694;54.382;9.708;2023-07-22T04:07:50;14.20;99.90
60860;DHT22;46694;54.382;9.708;2023-07-22T04:10:29;14.20;99.90
60860;DHT22;46694;54.382;9.708;2023-07-22T04:13:09;14.20;99.90
60860;DHT22;46694;54.382;9.708;2023-07-22T04:15:49;14.30;99.90
60860;DHT22;46694;54.382;9.708;2023-07-22T04:18:30;14.30;99.90
60860;DHT22;46694;54.382;9.708;2023-07-22T04:21:13;14.40;99.90
60860;DHT22;46694;54.382;9.708;2023-07-22T04:23:52;14.50;99.90
60860;DHT22;46694;54.382;9.708;2023-07-22T04:26:32;14.60;99.90
60860;DHT22;46694;54.382;9.708;2023-07-22T04:29:12;14.60;99.90
60860;DHT22;46694;54.382;9.708;2023-07-22T04:31:58;14.70;99.90
60860;DHT22;46694;54.382;9.708;2023-07-22T04:34:38;14.80;99.90
60860;DHT22;46694;54.382;9.708;2023-07-22T04:37:18;14.80;99.90
60860;DHT22;46694;54.382;9.708;2023-07-22T04:39:58;15.00;99.90
60860;DHT22;46694;54.382;9.708;2023-07-22T04:42:38;15.10;99.90
60860;DHT22;46694;54.382;9.708;2023-07-22T04:45:18;15.20;99.90
60860;DHT22;46694;54.382;9.708;2023-07-22T04:47:57;15.30;99.90
60860;DHT22;46694;54.382;9.708;2023-07-22T04:50:37;15.40;99.90
60860;DHT22;46694;54.382;9.708;2023-07-22T04:53:21;15.60;99.90
60860;DHT22;46694;54.382;9.708;2023-07-22T04:56:03;15.80;99.90
60860;DHT22;46694;54.382;9.708;2023-07-22T04:58:43;15.80;99.90
60860;DHT22;46694;54.382;9.708;2023-07-22T05:01:23;15.90;99.90
60860;DHT22;46694;54.382;9.708;2023-07-22T05:04:02;16.00;99.90
60860;DHT22;46694;54.382;9.708;2023-07-22T05:06:43;16.20;99.90
60860;DHT22;46694;54.382;9.708;2023-07-22T05:09:23;16.40;99.90
60860;DHT22;46694;54.382;9.708;2023-07-22T05:12:03;16.70;99.90
60860;DHT22;46694;54.382;9.708;2023-07-22T05:14:42;16.80;99.90
60860;DHT22;46694;54.382;9.708;2023-07-22T05:17:22;17.00;99.90
60860;DHT22;46694;54.382;9.708;2023-07-22T05:20:02;17.20;99.90
60860;DHT22;46694;54.382;9.708;2023-07-22T05:22:43;17.30;99.90
60860;DHT22;46694;54.382;9.708;2023-07-22T05:25:22;17.50;99.90
60860;DHT22;46694;54.382;9.708;2023-07-22T05:28:02;17.70;99.90
60860;DHT22;46694;54.382;9.708;2023-07-22T05:30:41;17.80;99.90
60860;DHT22;46694;54.382;9.708;2023-07-22T05:33:21;17.80;99.90
60860;DHT22;46694;54.382;9.708;2023-07-22T05:36:02;17.80;99.90
60860;DHT22;46694;54.382;9.708;2023-07-22T05:38:42;18.00;99.90
60860;DHT22;46694;54.382;9.708;2023-07-22T05:41:22;18.30;99.90
60860;DHT22;46694;54.382;9.708;2023-07-22T05:44:01;18.80;99.90
60860;DHT22;46694;54.382;9.708;2023-07-22T05:46:41;18.90;99.90
60860;DHT22;46694;54.382;9.708;2023-07-22T05:49:20;18.90;99.90
60860;DHT22;46694;54.382;9.708;2023-07-22T05:52:00;18.70;99.90
60860;DHT22;46694;54.382;9.708;2023-07-22T05:54:40;18.50;99.90
60860;DHT22;46694;54.382;9.708;2023-07-22T05:57:19;18.10;99.90
60860;DHT22;46694;54.382;9.708;2023-07-22T05:59:59;17.70;99.90
60860;DHT22;46694;54.382;9.708;2023-07-22T06:02:38;17.30;99.90
60860;DHT22;46694;54.382;9.708;2023-07-22T06:05:18;17.00;99.90
60860;DHT22;46694;54.382;9.708;2023-07-22T06:07:57;16.70;99.90
60860;DHT22;46694;54.382;9.708;2023-07-22T06:10:37;16.60;99.90
60860;DHT22;46694;54.382;9.708;2023-07-22T06:13:17;16.40;99.90
60860;DHT22;46694;54.382;9.708;2023-07-22T06:15:57;16.40;99.90
60860;DHT22;46694;54.382;9.708;2023-07-22T06:18:36;16.40;99.90
60860;DHT22;46694;54.382;9.708;2023-07-22T06:21:16;16.40;99.90
60860;DHT22;46694;54.382;9.708;2023-07-22T06:23:55;16.40;99.90
60860;DHT22;46694;54.382;9.708;2023-07-22T06:26:37;16.30;99.90
60860;DHT22;46694;54.382;9.708;2023-07-22T06:29:33;16.30;99.90
60860;DHT22;46694;54.382;9.708;2023-07-22T06:32:29;16.50;99.90
60860;DHT22;46694;54.382;9.708;2023-07-22T06:35:10;17.00;99.90
60860;DHT22;46694;54.382;9.708;2023-07-22T06:37:49;17.40;99.90
60860;DHT22;46694;54.382;9.708;2023-07-22T06:40:32;17.90;99.90
60860;DHT22;46694;54.382;9.708;2023-07-22T06:43:17;18.50;99.90
60860;DHT22;46694;54.382;9.708;2023-07-22T06:45:58;19.20;99.90
60860;DHT22;46694;54.382;9.708;2023-07-22T06:48:37;19.70;99.90
60860;DHT22;46694;54.382;9.708;2023-07-22T06:51:16;19.80;99.90
60860;DHT22;46694;54.382;9.708;2023-07-22T06:53:56;20.20;99.90
60860;DHT22;46694;54.382;9.708;2023-07-22T06:56:36;20.40;99.90
60860;DHT22;46694;54.382;9.708;2023-07-22T06:59:15;20.40;99.90
60860;DHT22;46694;54.382;9.708;2023-07-22T07:01:55;20.50;99.90
60860;DHT22;46694;54.382;9.708;2023-07-22T07:04:34;20.70;99.90
60860;DHT22;46694;54.382;9.708;2023-07-22T07:07:15;21.00;99.90
60860;DHT22;46694;54.382;9.708;2023-07-22T07:09:55;21.40;99.90
60860;DHT22;46694;54.382;9.708;2023-07-22T07:12:34;21.50;99.90
60860;DHT22;46694;54.382;9.708;2023-07-22T07:15:14;21.70;99.90
60860;DHT22;46694;54.382;9.708;2023-07-22T07:17:54;22.00;99.90
60860;DHT22;46694;54.382;9.708;2023-07-22T07:20:33;22.50;99.90
60860;DHT22;46694;54.382;9.708;2023-07-22T07:23:13;22.50;99.90
60860;DHT22;46694;54.382;9.708;2023-07-22T07:25:55;22.20;99.90
60860;DHT22;46694;54.382;9.708;2023-07-22T07:28:34;21.60;99.90
60860;DHT22;46694;54.382;9.708;2023-07-22T07:31:14;21.40;99.90
60860;DHT22;46694;54.382;9.708;2023-07-22T07:33:54;21.60;99.90
60860;DHT22;46694;54.382;9.708;2023-07-22T07:36:34;22.00;99.90
60860;DHT22;46694;54.382;9.708;2023-07-22T07:39:13;22.40;99.90
60860;DHT22;46694;54.382;9.708;2023-07-22T07:41:53;22.50;99.90
60860;DHT22;46694;54.382;9.708;2023-07-22T07:44:32;22.60;99.90
60860;DHT22;46694;54.382;9.708;2023-07-22T07:47:12;22.30;99.90
60860;DHT22;46694;54.382;9.708;2023-07-22T07:50:11;22.40;99.90
60860;DHT22;46694;54.382;9.708;2023-07-22T07:52:50;22.70;99.90
60860;DHT22;46694;54.382;9.708;2023-07-22T07:55:30;22.60;99.90
60860;DHT22;46694;54.382;9.708;2023-07-22T07:58:09;22.30;99.90
60860;DHT22;46694;54.382;9.708;2023-07-22T08:00:49;22.00;99.90
60860;DHT22;46694;54.382;9.708;2023-07-22T08:03:28;21.90;99.90
60860;DHT22;46694;54.382;9.708;2023-07-22T08:06:10;21.70;99.90
60860;DHT22;46694;54.382;9.708;2023-07-22T08:08:50;21.70;99.90
60860;DHT22;46694;54.382;9.708;2023-07-22T08:11:29;21.80;99.90
60860;DHT22;46694;54.382;9.708;2023-07-22T08:14:09;22.20;99.90
60860;DHT22;46694;54.382;9.708;2023-07-22T08:16:48;22.50;99.90
60860;DHT22;46694;54.382;9.708;2023-07-22T08:19:28;22.60;99.90
60860;DHT22;46694;54.382;9.708;2023-07-22T08:22:08;22.70;99.90
60860;DHT22;46694;54.382;9.708;2023-07-22T08:24:47;22.30;99.90
60860;DHT22;46694;54.382;9.708;2023-07-22T08:27:27;22.40;99.90
60860;DHT22;46694;54.382;9.708;2023-07-22T08:30:07;22.80;99.90
60860;DHT22;46694;54.382;9.708;2023-07-22T08:32:46;23.00;99.90
60860;DHT22;46694;54.382;9.708;2023-07-22T08:35:26;23.30;99.90
60860;DHT22;46694;54.382;9.708;2023-07-22T08:38:07;23.20;99.90
60860;DHT22;46694;54.382;9.708;2023-07-22T08:40:51;22.50;99.90
60860;DHT22;46694;54.382;9.708;2023-07-22T08:43:30;21.70;99.90
60860;DHT22;46694;54.382;9.708;2023-07-22T08:46:15;21.10;99.90
60860;DHT22;46694;54.382;9.708;2023-07-22T08:48:54;20.70;99.90
60860;DHT22;46694;54.382;9.708;2023-07-22T08:51:35;20.40;99.90
60860;DHT22;46694;54.382;9.708;2023-07-22T08:54:16;20.10;99.90
60860;DHT22;46694;54.382;9.708;2023-07-22T08:56:56;19.90;99.90
60860;DHT22;46694;54.382;9.708;2023-07-22T08:59:36;19.90;99.90
60860;DHT22;46694;54.382;9.708;2023-07-22T09:02:16;20.00;99.90
60860;DHT22;46694;54.382;9.708;2023-07-22T09:04:55;19.90;99.90
60860;DHT22;46694;54.382;9.708;2023-07-22T09:07:48;19.70;99.90
60860;DHT22;46694;54.382;9.708;2023-07-22T09:10:28;19.20;99.90
60860;DHT22;46694;54.382;9.708;2023-07-22T09:13:07;18.80;99.90
60860;DHT22;46694;54.382;9.708;2023-07-22T09:15:47;18.50;99.90
60860;DHT22;46694;54.382;9.708;2023-07-22T09:18:27;18.30;99.90
60860;DHT22;46694;54.382;9.708;2023-07-22T09:21:07;18.20;99.90
60860;DHT22;46694;54.382;9.708;2023-07-22T09:23:50;18.40;99.90
60860;DHT22;46694;54.382;9.708;2023-07-22T09:26:32;18.40;99.90
60860;DHT22;46694;54.382;9.708;2023-07-22T09:29:12;18.60;99.90
60860;DHT22;46694;54.382;9.708;2023-07-22T09:31:53;19.20;99.90
60860;DHT22;46694;54.382;9.708;2023-07-22T09:34:33;19.80;99.90
60860;DHT22;46694;54.382;9.708;2023-07-22T09:37:12;20.70;99.90
60860;DHT22;46694;54.382;9.708;2023-07-22T09:39:52;21.50;99.90
60860;DHT22;46694;54.382;9.708;2023-07-22T09:42:33;22.20;99.90
60860;DHT22;46694;54.382;9.708;2023-07-22T09:45:12;22.90;99.90
60860;DHT22;46694;54.382;9.708;2023-07-22T09:47:53;23.50;99.90
60860;DHT22;46694;54.382;9.708;2023-07-22T09:50:33;23.80;99.90
60860;DHT22;46694;54.382;9.708;2023-07-22T09:53:16;24.10;99.90
60860;DHT22;46694;54.382;9.708;2023-07-22T09:55:55;24.40;99.90
60860;DHT22;46694;54.382;9.708;2023-07-22T09:58:44;24.60;99.90
60860;DHT22;46694;54.382;9.708;2023-07-22T10:01:26;24.70;99.90
60860;DHT22;46694;54.382;9.708;2023-07-22T10:04:06;24.90;99.90
60860;DHT22;46694;54.382;9.708;2023-07-22T10:06:46;24.50;99.90
60860;DHT22;46694;54.382;9.708;2023-07-22T10:09:28;23.60;99.90
60860;DHT22;46694;54.382;9.708;2023-07-22T10:12:08;22.70;99.90
60860;DHT22;46694;54.382;9.708;2023-07-22T10:14:48;22.10;99.90
60860;DHT22;46694;54.382;9.708;2023-07-22T10:17:28;21.70;99.90
60860;DHT22;46694;54.382;9.708;2023-07-22T10:20:09;21.50;99.90
60860;DHT22;46694;54.382;9.708;2023-07-22T10:22:57;21.40;99.90
60860;DHT22;46694;54.382;9.708;2023-07-22T10:25:39;21.30;99.90
60860;DHT22;46694;54.382;9.708;2023-07-22T10:28:21;21.30;99.90
60860;DHT22;46694;54.382;9.708;2023-07-22T10:31:00;21.20;99.90
60860;DHT22;46694;54.382;9.708;2023-07-22T10:33:41;21.20;99.90
60860;DHT22;46694;54.382;9.708;2023-07-22T10:36:21;21.50;99.90
60860;DHT22;46694;54.382;9.708;2023-07-22T10:39:08;21.80;99.90
60860;DHT22;46694;54.382;9.708;2023-07-22T10:41:47;22.20;99.90
60860;DHT22;46694;54.382;9.708;2023-07-22T10:44:27;22.40;99.90
60860;DHT22;46694;54.382;9.708;2023-07-22T10:47:07;22.10;99.90
60860;DHT22;46694;54.382;9.708;2023-07-22T10:49:50;21.70;99.90
60860;DHT22;46694;54.382;9.708;2023-07-22T10:52:42;21.90;99.90
60860;DHT22;46694;54.382;9.708;2023-07-22T10:55:25;22.30;99.90
60860;DHT22;46694;54.382;9.708;2023-07-22T10:58:05;22.30;99.90
60860;DHT22;46694;54.382;9.708;2023-07-22T11:00:44;22.30;99.90
60860;DHT22;46694;54.382;9.708;2023-07-22T11:03:24;22.00;99.90
60860;DHT22;46694;54.382;9.708;2023-07-22T11:06:07;21.70;99.90
60860;DHT22;46694;54.382;9.708;2023-07-22T11:08:47;21.30;99.90
60860;DHT22;46694;54.382;9.708;2023-07-22T11:11:37;21.00;99.90
60860;DHT22;46694;54.382;9.708;2023-07-22T11:14:21;20.80;99.90
60860;DHT22;46694;54.382;9.708;2023-07-22T11:17:03;20.50;99.90
60860;DHT22;46694;54.382;9.708;2023-07-22T11:19:43;20.20;99.90
60860;DHT22;46694;54.382;9.708;2023-07-22T11:22:23;20.00;99.90
60860;DHT22;46694;54.382;9.708;2023-07-22T11:25:02;19.90;99.90
60860;DHT22;46694;54.382;9.708;2023-07-22T11:27:42;19.80;99.90
60860;DHT22;46694;54.382;9.708;2023-07-22T11:30:24;19.90;99.90
60860;DHT22;46694;54.382;9.708;2023-07-22T11:33:20;20.10;99.90
60860;DHT22;46694;54.382;9.708;2023-07-22T11:35:59;20.50;99.90
60860;DHT22;46694;54.382;9.708;2023-07-22T11:38:39;20.80;99.90
60860;DHT22;46694;54.382;9.708;2023-07-22T11:41:18;21.20;99.90
60860;DHT22;46694;54.382;9.708;2023-07-22T11:44:00;21.40;99.90
60860;DHT22;46694;54.382;9.708;2023-07-22T11:49:40;21.70;99.90
60860;DHT22;46694;54.382;9.708;2023-07-22T11:52:20;21.70;99.90
60860;DHT22;46694;54.382;9.708;2023-07-22T11:55:02;21.50;99.90
60860;DHT22;46694;54.382;9.708;2023-07-22T11:57:54;21.50;99.90
60860;DHT22;46694;54.382;9.708;2023-07-22T12:00:34;21.60;99.90
60860;DHT22;46694;54.382;9.708;2023-07-22T12:03:14;21.70;99.90
60860;DHT22;46694;54.382;9.708;2023-07-22T12:05:54;21.70;99.90
60860;DHT22;46694;54.382;9.708;2023-07-22T12:08:33;21.50;99.90
60860;DHT22;46694;54.382;9.708;2023-07-22T12:11:24;21.20;99.90
60860;DHT22;46694;54.382;9.708;2023-07-22T12:14:06;20.80;99.90
60860;DHT22;46694;54.382;9.708;2023-07-22T12:16:55;20.60;99.90
60860;DHT22;46694;54.382;9.708;2023-07-22T12:19:38;20.50;99.90
60860;DHT22;46694;54.382;9.708;2023-07-22T12:22:29;20.30;99.90
60860;DHT22;46694;54.382;9.708;2023-07-22T12:25:09;20.40;99.90
60860;DHT22;46694;54.382;9.708;2023-07-22T12:27:49;20.40;99.90
60860;DHT22;46694;54.382;9.708;2023-07-22T12:30:29;20.40;99.90
60860;DHT22;46694;54.382;9.708;2023-07-22T12:33:09;20.40;99.90
60860;DHT22;46694;54.382;9.708;2023-07-22T12:35:49;20.40;99.90
60860;DHT22;46694;54.382;9.708;2023-07-22T12:38:29;20.40;99.90
60860;DHT22;46694;54.382;9.708;2023-07-22T12:41:08;20.40;99.90
60860;DHT22;46694;54.382;9.708;2023-07-22T12:43:48;20.50;99.90
60860;DHT22;46694;54.382;9.708;2023-07-22T12:46:28;20.80;99.90
60860;DHT22;46694;54.382;9.708;2023-07-22T12:49:07;20.90;99.90
60860;DHT22;46694;54.382;9.708;2023-07-22T12:51:47;21.10;99.90
60860;DHT22;46694;54.382;9.708;2023-07-22T12:54:27;21.00;99.90
60860;DHT22;46694;54.382;9.708;2023-07-22T12:57:06;21.10;99.90
60860;DHT22;46694;54.382;9.708;2023-07-22T12:59:46;21.10;99.90
60860;DHT22;46694;54.382;9.708;2023-07-22T13:02:25;21.00;99.90
60860;DHT22;46694;54.382;9.708;2023-07-22T13:05:05;20.90;99.90
60860;DHT22;46694;54.382;9.708;2023-07-22T13:07:46;20.90;99.90
60860;DHT22;46694;54.382;9.708;2023-07-22T13:10:25;20.90;99.90
60860;DHT22;46694;54.382;9.708;2023-07-22T13:13:07;20.70;99.90
60860;DHT22;46694;54.382;9.708;2023-07-22T13:15:47;20.50;99.90
60860;DHT22;46694;54.382;9.708;2023-07-22T13:21:06;20.00;99.90
60860;DHT22;46694;54.382;9.708;2023-07-22T13:23:48;19.70;99.90
60860;DHT22;46694;54.382;9.708;2023-07-22T13:26:28;19.30;99.90
60860;DHT22;46694;54.382;9.708;2023-07-22T13:29:09;18.90;99.90
60860;DHT22;46694;54.382;9.708;2023-07-22T13:31:48;18.80;99.90
60860;DHT22;46694;54.382;9.708;2023-07-22T13:34:27;18.80;99.90
60860;DHT22;46694;54.382;9.708;2023-07-22T13:37:07;18.90;99.90
60860;DHT22;46694;54.382;9.708;2023-07-22T13:39:46;18.90;99.90
60860;DHT22;46694;54.382;9.708;2023-07-22T13:42:26;19.00;99.90
60860;DHT22;46694;54.382;9.708;2023-07-22T13:45:06;19.00;99.90
60860;DHT22;46694;54.382;9.708;2023-07-22T13:47:46;19.00;99.90
60860;DHT22;46694;54.382;9.708;2023-07-22T13:50:25;19.00;99.90
60860;DHT22;46694;54.382;9.708;2023-07-22T13:53:05;19.00;99.90
60860;DHT22;46694;54.382;9.708;2023-07-22T13:55:44;19.10;99.90
60860;DHT22;46694;54.382;9.708;2023-07-22T13:58:24;19.20;99.90
60860;DHT22;46694;54.382;9.708;2023-07-22T14:01:04;19.30;99.90
60860;DHT22;46694;54.382;9.708;2023-07-22T14:03:43;19.30;99.90
60860;DHT22;46694;54.382;9.708;2023-07-22T14:06:23;19.30;99.90
60860;DHT22;46694;54.382;9.708;2023-07-22T14:09:02;19.20;99.90
60860;DHT22;46694;54.382;9.708;2023-07-22T14:11:42;19.30;99.90
60860;DHT22;46694;54.382;9.708;2023-07-22T14:14:22;19.30;99.90
60860;DHT22;46694;54.382;9.708;2023-07-22T14:17:07;19.30;99.90
60860;DHT22;46694;54.382;9.708;2023-07-22T14:19:47;19.10;99.90
60860;DHT22;46694;54.382;9.708;2023-07-22T14:22:26;19.00;99.90
60860;DHT22;46694;54.382;9.708;2023-07-22T14:25:06;19.00;99.90
60860;DHT22;46694;54.382;9.708;2023-07-22T14:27:49;18.80;99.90
60860;DHT22;46694;54.382;9.708;2023-07-22T14:30:29;18.70;99.90
60860;DHT22;46694;54.382;9.708;2023-07-22T14:33:09;18.60;99.90
60860;DHT22;46694;54.382;9.708;2023-07-22T14:35:49;18.60;99.90
60860;DHT22;46694;54.382;9.708;2023-07-22T14:38:29;18.60;99.90
60860;DHT22;46694;54.382;9.708;2023-07-22T14:41:08;18.70;99.90
60860;DHT22;46694;54.382;9.708;2023-07-22T14:43:50;18.60;99.90
60860;DHT22;46694;54.382;9.708;2023-07-22T14:46:29;18.50;99.90
60860;DHT22;46694;54.382;9.708;2023-07-22T14:49:09;18.40;99.90
60860;DHT22;46694;54.382;9.708;2023-07-22T14:51:48;18.20;99.90
60860;DHT22;46694;54.382;9.708;2023-07-22T14:54:28;18.00;99.90
60860;DHT22;46694;54.382;9.708;2023-07-22T14:57:07;17.90;99.90
60860;DHT22;46694;54.382;9.708;2023-07-22T14:59:47;17.70;99.90
60860;DHT22;46694;54.382;9.708;2023-07-22T15:02:27;17.60;99.90
60860;DHT22;46694;54.382;9.708;2023-07-22T15:05:07;17.60;99.90
60860;DHT22;46694;54.382;9.708;2023-07-22T15:07:47;17.70;99.90
60860;DHT22;46694;54.382;9.708;2023-07-22T15:10:26;17.70;99.90
60860;DHT22;46694;54.382;9.708;2023-07-22T15:13:09;17.80;99.90
60860;DHT22;46694;54.382;9.708;2023-07-22T15:15:48;17.80;99.90
60860;DHT22;46694;54.382;9.708;2023-07-22T15:18:28;17.90;99.90
60860;DHT22;46694;54.382;9.708;2023-07-22T15:21:08;17.90;99.90
60860;DHT22;46694;54.382;9.708;2023-07-22T15:23:47;17.80;99.90
60860;DHT22;46694;54.382;9.708;2023-07-22T15:26:27;17.70;99.90
60860;DHT22;46694;54.382;9.708;2023-07-22T15:29:07;17.60;99.90
60860;DHT22;46694;54.382;9.708;2023-07-22T15:31:47;17.50;99.90
60860;DHT22;46694;54.382;9.708;2023-07-22T15:34:29;17.30;99.90
60860;DHT22;46694;54.382;9.708;2023-07-22T15:37:08;17.30;99.90
60860;DHT22;46694;54.382;9.708;2023-07-22T15:39:48;17.30;99.90
60860;DHT22;46694;54.382;9.708;2023-07-22T15:42:29;17.30;99.90
60860;DHT22;46694;54.382;9.708;2023-07-22T15:45:08;17.30;99.90
60860;DHT22;46694;54.382;9.708;2023-07-22T15:47:48;17.30;99.90
60860;DHT22;46694;54.382;9.708;2023-07-22T15:50:28;17.40;99.90
60860;DHT22;46694;54.382;9.708;2023-07-22T15:53:07;17.40;99.90
60860;DHT22;46694;54.382;9.708;2023-07-22T15:55:47;17.40;99.90
60860;DHT22;46694;54.382;9.708;2023-07-22T15:58:26;17.30;99.90
60860;DHT22;46694;54.382;9.708;2023-07-22T16:01:06;17.30;99.90
60860;DHT22;46694;54.382;9.708;2023-07-22T16:03:46;17.30;99.90
60860;DHT22;46694;54.382;9.708;2023-07-22T16:06:26;17.40;99.90
60860;DHT22;46694;54.382;9.708;2023-07-22T16:09:08;17.50;99.90
60860;DHT22;46694;54.382;9.708;2023-07-22T16:11:48;17.50;99.90
60860;DHT22;46694;54.382;9.708;2023-07-22T16:14:27;17.50;99.90
60860;DHT22;46694;54.382;9.708;2023-07-22T16:17:07;17.50;99.90
60860;DHT22;46694;54.382;9.708;2023-07-22T16:19:46;17.40;99.90
60860;DHT22;46694;54.382;9.708;2023-07-22T16:22:26;17.40;99.90
60860;DHT22;46694;54.382;9.708;2023-07-22T16:25:06;17.40;99.90
60860;DHT22;46694;54.382;9.708;2023-07-22T16:27:46;17.30;99.90
60860;DHT22;46694;54.382;9.708;2023-07-22T16:33:48;17.40;99.90
60860;DHT22;46694;54.382;9.708;2023-07-22T16:36:28;17.40;99.90
60860;DHT22;46694;54.382;9.708;2023-07-22T16:39:08;17.30;99.90
60860;DHT22;46694;54.382;9.708;2023-07-22T16:41:47;17.30;99.90
60860;DHT22;46694;54.382;9.708;2023-07-22T16:44:27;17.30;99.90
60860;DHT22;46694;54.382;9.708;2023-07-22T16:47:06;17.40;99.90
60860;DHT22;46694;54.382;9.708;2023-07-22T16:49:46;17.30;99.90
60860;DHT22;46694;54.382;9.708;2023-07-22T16:52:26;17.30;99.90
60860;DHT22;46694;54.382;9.708;2023-07-22T16:55:06;17.40;99.90
60860;DHT22;46694;54.382;9.708;2023-07-22T16:57:47;17.40;99.90
60860;DHT22;46694;54.382;9.708;2023-07-22T17:00:26;17.40;99.90
60860;DHT22;46694;54.382;9.708;2023-07-22T17:03:08;17.40;99.90